Time;durP1;ratioP1;P1;durP2;ratioP2;P2;SDS_P1;SDS_P2;PMS_P1;PMS_P2;Temp;Humidity;BMP_temperature;BMP_pressure;BME280_temperature;BME280_humidity;BME280_pressure;Samples;Min_cycle;Max_cycle;Signal;HPM_P1;HPM_P2
2022/09/21 00:00:12;;;;;;;5.30;3.97;;;15.80;99.90;;;;;;1035775;28;20632;-67
2022/09/21 00:00:43;;;;;;;7.05;4.20;;;15.80;99.90;;;;;;1038950;28;20014;-67
2022/09/21 00:01:19;;;;;;;7.00;4.00;;;15.80;99.90;;;;;;1035624;28;20009;-67
2022/09/21 00:01:50;;;;;;;8.20;4.10;;;15.80;99.90;;;;;;1036426;28;20021;-66
2022/09/21 00:02:20;;;;;;;5.90;4.07;;;15.70;99.90;;;;;;1039788;28;20041;-67
2022/09/21 00:02:55;;;;;;;5.07;4.33;;;15.70;99.90;;;;;;1039511;28;20020;-66
2022/09/21 00:03:25;;;;;;;5.05;3.85;;;15.70;99.90;;;;;;1039550;28;20108;-68
2022/09/21 00:03:59;;;;;;;5.67;4.23;;;15.70;99.90;;;;;;1038900;28;20028;-66
2022/09/21 00:04:30;;;;;;;4.72;3.80;;;15.70;99.90;;;;;;1039508;28;20040;-67
2022/09/21 00:05:00;;;;;;;7.57;3.97;;;15.70;99.90;;;;;;1039149;28;20052;-66
2022/09/21 00:05:32;;;;;;;5.00;3.83;;;15.70;99.90;;;;;;1039420;28;20013;-70
2022/09/21 00:06:07;;;;;;;9.52;4.80;;;15.70;99.90;;;;;;1034908;28;20017;-67
2022/09/21 00:06:38;;;;;;;5.00;4.00;;;15.70;99.90;;;;;;1035223;28;20112;-66
2022/09/21 00:07:09;;;;;;;5.70;4.10;;;15.70;99.90;;;;;;1036205;28;20026;-66
2022/09/21 00:07:39;;;;;;;5.93;4.43;;;15.70;99.90;;;;;;1039221;28;20018;-67
2022/09/21 00:08:12;;;;;;;4.30;3.80;;;15.70;99.90;;;;;;1039869;28;20024;-67
2022/09/21 00:08:44;;;;;;;6.53;4.30;;;15.70;99.90;;;;;;1039507;28;20024;-67
2022/09/21 00:09:15;;;;;;;6.03;4.07;;;15.70;99.90;;;;;;1039058;28;20515;-66
2022/09/21 00:09:45;;;;;;;4.53;3.50;;;15.70;99.90;;;;;;1039392;28;20507;-66
2022/09/21 00:10:18;;;;;;;5.77;4.60;;;15.70;99.90;;;;;;1039245;28;20021;-67
2022/09/21 00:10:49;;;;;;;6.95;4.40;;;15.70;99.90;;;;;;1039518;28;20163;-66
2022/09/21 00:11:26;;;;;;;4.53;3.80;;;15.70;99.90;;;;;;1039667;28;20017;-67
2022/09/21 00:11:56;;;;;;;5.05;4.07;;;15.70;99.90;;;;;;1038960;28;20032;-65
2022/09/21 00:12:28;;;;;;;5.50;4.20;;;15.70;99.90;;;;;;1039258;28;20010;-68
2022/09/21 00:13:01;;;;;;;6.88;4.78;;;15.70;99.90;;;;;;1039321;28;20009;-67
2022/09/21 00:13:33;;;;;;;8.25;4.18;;;15.70;99.90;;;;;;1036431;28;20014;-68
2022/09/21 00:14:09;;;;;;;7.70;4.32;;;15.70;99.90;;;;;;1039308;28;20018;-67
2022/09/21 00:14:39;;;;;;;6.35;4.35;;;15.70;99.90;;;;;;1030962;28;20569;-67
2022/09/21 00:15:11;;;;;;;5.37;3.57;;;15.70;99.90;;;;;;1031686;28;20521;-67
2022/09/21 00:15:42;;;;;;;4.93;4.35;;;15.70;99.90;;;;;;1037116;28;20036;-68
2022/09/21 00:16:15;;;;;;;4.70;3.33;;;15.70;99.90;;;;;;1039417;28;20045;-68
2022/09/21 00:16:46;;;;;;;5.93;3.72;;;15.70;99.90;;;;;;1039482;28;20548;-67
2022/09/21 00:17:16;;;;;;;6.40;4.10;;;15.70;99.90;;;;;;1038896;28;20559;-67
2022/09/21 00:17:52;;;;;;;5.57;3.80;;;15.70;99.90;;;;;;1035490;28;20017;-67
2022/09/21 00:18:24;;;;;;;5.43;3.90;;;15.60;99.90;;;;;;1035752;28;20100;-68
2022/09/21 00:18:54;;;;;;;7.05;4.10;;;15.60;99.90;;;;;;1037401;28;20018;-67
2022/09/21 00:19:25;;;;;;;7.53;4.27;;;15.60;99.90;;;;;;1039291;28;20017;-68
2022/09/21 00:19:55;;;;;;;6.13;3.87;;;15.60;99.90;;;;;;1038245;28;20156;-67
2022/09/21 00:20:27;;;;;;;5.37;4.13;;;15.60;99.90;;;;;;1039505;28;20183;-68
2022/09/21 00:20:58;;;;;;;5.60;3.60;;;15.60;99.90;;;;;;1038477;28;20427;-67
2022/09/21 00:21:29;;;;;;;6.77;3.93;;;15.60;99.90;;;;;;1035620;28;20489;-67
2022/09/21 00:21:59;;;;;;;7.03;3.90;;;15.60;99.90;;;;;;1035196;28;20024;-67
2022/09/21 00:22:32;;;;;;;6.37;3.47;;;15.60;99.90;;;;;;1039254;28;20060;-67
2022/09/21 00:23:02;;;;;;;5.30;3.83;;;15.60;99.90;;;;;;1039299;28;20013;-67
2022/09/21 00:23:34;;;;;;;4.57;3.47;;;15.60;99.90;;;;;;1039285;28;20091;-68
2022/09/21 00:24:06;;;;;;;4.75;3.72;;;15.60;99.90;;;;;;1038990;28;20024;-67
2022/09/21 00:24:36;;;;;;;6.47;4.85;;;15.60;99.90;;;;;;1034972;28;20100;-67
2022/09/21 00:25:08;;;;;;;6.43;4.30;;;15.60;99.90;;;;;;1038718;28;20068;-66
2022/09/21 00:25:38;;;;;;;6.03;4.00;;;15.60;99.90;;;;;;1039176;28;20039;-66
2022/09/21 00:26:15;;;;;;;6.50;4.27;;;15.60;99.90;;;;;;1039022;28;20353;-66
2022/09/21 00:26:46;;;;;;;5.25;3.90;;;15.60;99.90;;;;;;1039232;28;20009;-67
2022/09/21 00:27:16;;;;;;;6.20;4.33;;;15.60;99.90;;;;;;1039129;28;20136;-67
2022/09/21 00:27:48;;;;;;;5.13;4.10;;;15.60;99.90;;;;;;1039488;28;20014;-67
2022/09/21 00:28:19;;;;;;;5.72;4.40;;;15.60;99.90;;;;;;1034930;28;20495;-67
2022/09/21 00:28:58;;;;;;;5.43;4.00;;;15.70;99.90;;;;;;1039536;28;20689;-67
2022/09/21 00:29:28;;;;;;;7.28;3.78;;;15.60;99.90;;;;;;1037150;28;20043;-67
2022/09/21 00:30:01;;;;;;;4.40;3.70;;;15.60;99.90;;;;;;1037217;28;20030;-67
2022/09/21 00:30:32;;;;;;;6.13;3.47;;;15.60;99.90;;;;;;1036911;28;20036;-66
2022/09/21 00:31:05;;;;;;;5.40;4.00;;;15.60;99.90;;;;;;1035328;28;20018;-67
2022/09/21 00:31:36;;;;;;;4.30;3.70;;;15.60;99.90;;;;;;1037409;28;20473;-69
2022/09/21 00:32:07;;;;;;;5.47;4.00;;;15.60;99.90;;;;;;1039247;28;20469;-68
2022/09/21 00:32:38;;;;;;;6.10;4.03;;;15.60;99.90;;;;;;1039277;28;20075;-67
2022/09/21 00:33:09;;;;;;;7.65;4.00;;;15.60;99.90;;;;;;1039130;28;20013;-68
2022/09/21 00:33:40;;;;;;;5.57;3.70;;;15.60;99.90;;;;;;1037519;28;20024;-66
2022/09/21 00:34:11;;;;;;;9.57;4.22;;;15.60;99.90;;;;;;1039781;28;20014;-67
2022/09/21 00:34:41;;;;;;;5.13;3.90;;;15.60;99.90;;;;;;1039668;28;20009;-67
2022/09/21 00:35:12;;;;;;;6.17;3.83;;;15.60;99.90;;;;;;1039475;28;20010;-67
2022/09/21 00:35:43;;;;;;;5.53;3.97;;;15.60;99.90;;;;;;1039128;28;20032;-66
2022/09/21 00:36:16;;;;;;;4.90;4.20;;;15.60;99.90;;;;;;1039185;28;20010;-66
2022/09/21 00:36:47;;;;;;;4.55;3.92;;;15.60;99.90;;;;;;1039140;28;20015;-67
2022/09/21 00:37:21;;;;;;;6.60;3.93;;;15.60;99.90;;;;;;1039334;28;20068;-67
2022/09/21 00:37:51;;;;;;;4.55;3.40;;;15.60;99.90;;;;;;1039098;28;20020;-66
2022/09/21 00:38:22;;;;;;;4.63;3.80;;;15.60;99.90;;;;;;1039211;28;20021;-67
2022/09/21 00:39:00;;;;;;;4.13;3.73;;;15.60;99.90;;;;;;1039186;28;20524;-67
2022/09/21 00:39:30;;;;;;;5.10;4.38;;;15.60;99.90;;;;;;1039225;28;20009;-66
2022/09/21 00:40:02;;;;;;;5.47;3.93;;;15.60;99.90;;;;;;1039076;28;20109;-66
2022/09/21 00:40:33;;;;;;;6.88;4.10;;;15.60;99.90;;;;;;1034838;28;20014;-66
2022/09/21 00:41:05;;;;;;;6.67;3.80;;;15.60;99.90;;;;;;1035616;28;20018;-66
2022/09/21 00:41:35;;;;;;;5.55;3.50;;;15.60;99.90;;;;;;1038843;28;20044;-67
2022/09/21 00:42:15;;;;;;;4.30;3.67;;;15.50;99.90;;;;;;1039331;28;20009;-67
2022/09/21 00:42:46;;;;;;;5.50;4.20;;;15.50;99.90;;;;;;1039071;28;20081;-67
2022/09/21 00:43:17;;;;;;;5.35;3.90;;;15.50;99.90;;;;;;1039032;28;20022;-67
2022/09/21 00:44:26;;;;;;;4.65;3.80;;;15.50;99.90;;;;;;1038484;28;20022;-67
2022/09/21 00:44:56;;;;;;;7.00;3.95;;;15.50;99.90;;;;;;1036097;28;20053;-68
2022/09/21 00:45:27;;;;;;;3.83;3.30;;;15.50;99.90;;;;;;1037716;28;20022;-67
2022/09/21 00:46:05;;;;;;;5.37;3.60;;;15.50;99.90;;;;;;1034987;28;20014;-67
2022/09/21 00:46:38;;;;;;;5.20;3.97;;;15.50;99.90;;;;;;1036166;28;20014;-67
2022/09/21 00:47:18;;;;;;;5.60;3.83;;;15.50;99.90;;;;;;1039294;28;20018;-67
2022/09/21 00:47:51;;;;;;;5.43;3.45;;;15.50;99.90;;;;;;1039564;28;20096;-68
2022/09/21 00:48:22;;;;;;;3.80;3.30;;;15.50;99.90;;;;;;1039393;28;20016;-68
2022/09/21 00:48:53;;;;;;;5.77;3.70;;;15.50;99.90;;;;;;1039061;28;20033;-68
2022/09/21 00:49:26;;;;;;;4.60;3.77;;;15.50;99.90;;;;;;1039013;28;20018;-69
2022/09/21 00:49:59;;;;;;;4.60;3.33;;;15.50;99.90;;;;;;1038880;28;20413;-68
2022/09/21 00:50:30;;;;;;;5.32;4.15;;;15.50;99.90;;;;;;1039238;28;20087;-67
2022/09/21 00:51:05;;;;;;;6.53;3.70;;;15.50;99.90;;;;;;1034714;28;20022;-68
2022/09/21 00:51:36;;;;;;;6.32;3.67;;;15.50;99.90;;;;;;1034951;28;20452;-67
2022/09/21 00:52:09;;;;;;;5.13;3.72;;;15.50;99.90;;;;;;1035076;28;20049;-70
2022/09/21 00:52:45;;;;;;;3.58;3.15;;;15.50;99.90;;;;;;1036325;28;20025;-67
2022/09/21 00:53:16;;;;;;;4.65;3.78;;;15.50;99.90;;;;;;1039102;28;20406;-67
2022/09/21 00:53:50;;;;;;;4.27;3.77;;;15.40;99.90;;;;;;1039378;28;20542;-67
2022/09/21 00:54:28;;;;;;;5.38;3.28;;;15.40;99.90;;;;;;1039491;28;20020;-68
2022/09/21 00:55:10;;;;;;;5.70;3.65;;;15.40;99.90;;;;;;1039632;28;20017;-67
2022/09/21 00:55:48;;;;;;;3.80;3.30;;;15.40;99.90;;;;;;1039450;28;20382;-67
2022/09/21 00:56:19;;;;;;;6.15;3.85;;;15.40;99.90;;;;;;1039283;28;20028;-67
2022/09/21 00:56:49;;;;;;;4.55;3.80;;;15.40;99.90;;;;;;1039448;28;20027;-67
2022/09/21 00:57:24;;;;;;;5.30;3.97;;;15.40;99.90;;;;;;1037308;28;20032;-67
2022/09/21 00:58:01;;;;;;;5.63;3.88;;;15.40;99.90;;;;;;1035436;28;20026;-67
2022/09/21 00:58:39;;;;;;;4.75;4.03;;;15.40;99.90;;;;;;1038609;28;20021;-67
2022/09/21 00:59:12;;;;;;;6.57;4.13;;;15.40;99.90;;;;;;1036317;28;20048;-67
2022/09/21 00:59:44;;;;;;;6.03;4.10;;;15.40;99.90;;;;;;1035272;28;20048;-68
2022/09/21 01:00:15;;;;;;;5.13;3.45;;;15.40;99.90;;;;;;1035451;28;20100;-67
2022/09/21 01:00:45;;;;;;;5.07;3.50;;;15.40;99.90;;;;;;1037665;28;20018;-67
2022/09/21 01:01:17;;;;;;;5.53;3.67;;;15.40;99.90;;;;;;1035078;28;20045;-67
2022/09/21 01:01:48;;;;;;;4.20;3.80;;;15.30;99.90;;;;;;1037559;28;20140;-67
2022/09/21 01:02:19;;;;;;;5.47;3.40;;;15.40;99.90;;;;;;1039083;28;20404;-67
2022/09/21 01:02:51;;;;;;;5.10;4.03;;;15.30;99.90;;;;;;1038847;28;20025;-68
2022/09/21 01:03:21;;;;;;;5.15;3.50;;;15.30;99.90;;;;;;1039292;28;20385;-68
2022/09/21 01:03:55;;;;;;;4.27;3.40;;;15.40;99.90;;;;;;1038792;28;20950;-66
2022/09/21 01:04:27;;;;;;;5.65;3.88;;;15.30;99.90;;;;;;1039316;28;20044;-67
2022/09/21 01:04:58;;;;;;;3.70;3.30;;;15.30;99.90;;;;;;1038746;28;20033;-68
2022/09/21 01:05:29;;;;;;;6.70;3.83;;;15.40;99.90;;;;;;1039124;28;20120;-67
2022/09/21 01:05:59;;;;;;;5.97;4.00;;;15.30;99.90;;;;;;1038858;28;20088;-67
2022/09/21 01:06:33;;;;;;;5.13;3.30;;;15.30;99.90;;;;;;1039062;28;20024;-68
2022/09/21 01:07:11;;;;;;;4.22;3.35;;;15.40;99.90;;;;;;1038941;28;20071;-67
2022/09/21 01:07:45;;;;;;;5.70;3.83;;;15.40;99.90;;;;;;1035605;28;20026;-68
2022/09/21 01:08:16;;;;;;;8.85;4.13;;;15.40;99.90;;;;;;1036246;28;20022;-68
2022/09/21 01:08:51;;;;;;;4.07;3.67;;;15.40;99.90;;;;;;1039257;28;20010;-68
2022/09/21 01:09:22;;;;;;;4.45;3.47;;;15.40;99.90;;;;;;1035825;28;20030;-67
2022/09/21 01:09:57;;;;;;;5.45;3.72;;;15.40;99.90;;;;;;1036090;28;20013;-69
2022/09/21 01:10:36;;;;;;;6.05;3.80;;;15.30;99.90;;;;;;1039135;28;20013;-68
2022/09/21 01:11:16;;;;;;;5.00;3.60;;;15.30;99.90;;;;;;1038949;28;20104;-68
2022/09/21 01:12:20;;;;;;;8.27;3.53;;;15.40;99.90;;;;;;1035889;28;20192;-68
2022/09/21 01:13:15;;;;;;;5.10;3.38;;;15.30;99.90;;;;;;1043132;28;20017;-67
2022/09/21 01:14:04;;;;;;;4.57;3.65;;;15.40;99.90;;;;;;1035138;28;20033;-68
2022/09/21 01:15:13;;;;;;;6.10;4.10;;;15.30;99.90;;;;;;1031233;28;20022;-68
2022/09/21 01:16:18;;;;;;;5.05;3.85;;;15.30;99.90;;;;;;1032092;28;20105;-68
2022/09/21 01:17:03;;;;;;;5.57;4.28;;;15.30;99.90;;;;;;1036748;28;20022;-67
2022/09/21 01:17:44;;;;;;;4.50;3.67;;;15.30;99.90;;;;;;1039014;28;20020;-67
2022/09/21 01:18:24;;;;;;;6.50;4.07;;;15.30;99.90;;;;;;1035936;28;20014;-67
2022/09/21 01:19:06;;;;;;;3.40;2.78;;;15.30;99.90;;;;;;1039011;28;20087;-67
2022/09/21 01:19:52;;;;;;;5.40;3.65;;;15.30;99.90;;;;;;1038685;28;20032;-67
2022/09/21 01:20:41;;;;;;;4.40;3.58;;;15.30;99.90;;;;;;1031799;28;20042;-67
2022/09/21 01:21:11;;;;;;;6.72;3.83;;;15.30;99.90;;;;;;1033243;28;20441;-67
2022/09/21 01:22:25;;;;;;;5.17;4.10;;;15.30;99.90;;;;;;1039134;28;20522;-68
2022/09/21 01:23:13;;;;;;;6.20;3.60;;;15.20;99.90;;;;;;1034285;28;20454;-67
2022/09/21 01:24:08;;;;;;;4.25;3.67;;;15.30;99.90;;;;;;1030633;28;20022;-67
2022/09/21 01:25:03;;;;;;;4.13;3.65;;;15.20;99.90;;;;;;1032139;28;20418;-68
2022/09/21 01:26:00;;;;;;;5.15;4.10;;;15.20;99.90;;;;;;1035159;28;20609;-67
2022/09/21 01:26:50;;;;;;;5.97;2.90;;;15.20;99.90;;;;;;1035404;28;20466;-68
2022/09/21 01:27:45;;;;;;;6.13;3.75;;;15.20;99.90;;;;;;1038912;28;20481;-67
2022/09/21 01:28:43;;;;;;;5.35;4.85;;;15.20;99.90;;;;;;1038840;28;20091;-68
2022/09/21 01:29:26;;;;;;;5.82;3.63;;;15.10;99.90;;;;;;1035638;28;20080;-67
2022/09/21 01:30:01;;;;;;;5.18;4.05;;;15.00;99.90;;;;;;1036766;28;20172;-67
2022/09/21 01:30:34;;;;;;;4.70;3.50;;;15.00;99.90;;;;;;1039200;28;20477;-66
2022/09/21 01:31:10;;;;;;;3.67;3.13;;;15.00;99.90;;;;;;1039232;28;20032;-66
2022/09/21 01:31:50;;;;;;;5.22;3.55;;;15.00;99.90;;;;;;1039136;28;20022;-66
2022/09/21 01:32:38;;;;;;;5.00;3.55;;;15.00;99.90;;;;;;1039231;28;20069;-66
2022/09/21 01:33:16;;;;;;;5.97;3.55;;;15.00;99.90;;;;;;1039138;28;20021;-66
2022/09/21 01:33:53;;;;;;;4.97;4.00;;;15.00;99.90;;;;;;1031274;28;20037;-66
2022/09/21 01:34:29;;;;;;;6.63;3.83;;;15.10;99.90;;;;;;1030942;28;20685;-67
2022/09/21 01:35:18;;;;;;;4.80;3.28;;;15.00;99.90;;;;;;1036616;28;20019;-66
2022/09/21 01:35:55;;;;;;;3.63;3.05;;;15.00;99.90;;;;;;1039487;28;20083;-66
2022/09/21 01:36:30;;;;;;;5.55;4.03;;;15.00;99.90;;;;;;1038692;28;20502;-67
2022/09/21 01:37:05;;;;;;;4.55;3.60;;;15.00;99.90;;;;;;1034751;28;20030;-67
2022/09/21 01:38:05;;;;;;;4.80;3.55;;;15.00;99.90;;;;;;1034649;28;20025;-67
2022/09/21 01:38:50;;;;;;;5.10;4.13;;;15.10;99.90;;;;;;1032985;28;20126;-68
2022/09/21 01:39:22;;;;;;;4.28;3.80;;;15.10;99.90;;;;;;1039011;28;20431;-68
2022/09/21 01:39:58;;;;;;;4.72;3.38;;;15.00;99.90;;;;;;1040483;28;20060;-67
2022/09/21 01:40:43;;;;;;;7.05;3.60;;;15.00;99.90;;;;;;1036636;28;20579;-68
2022/09/21 01:41:18;;;;;;;4.50;3.58;;;15.00;99.90;;;;;;1034398;28;20022;-68
2022/09/21 01:41:51;;;;;;;5.28;3.75;;;15.00;99.90;;;;;;1038139;28;20028;-67
2022/09/21 01:42:24;;;;;;;4.60;3.38;;;15.00;99.90;;;;;;1039141;28;20480;-67
2022/09/21 01:42:57;;;;;;;7.35;3.78;;;15.00;99.90;;;;;;1036944;28;20013;-67
2022/09/21 01:43:39;;;;;;;5.60;3.83;;;15.00;99.90;;;;;;1038628;28;20052;-69
2022/09/21 01:44:16;;;;;;;4.55;3.30;;;15.00;99.90;;;;;;1035671;28;20084;-67
2022/09/21 01:44:49;;;;;;;3.97;3.20;;;15.00;99.90;;;;;;1035528;28;20069;-67
2022/09/21 01:45:27;;;;;;;5.10;3.78;;;15.00;99.90;;;;;;1038903;28;20014;-67
2022/09/21 01:46:00;;;;;;;3.30;2.97;;;15.00;99.90;;;;;;1038669;28;20144;-67
2022/09/21 01:46:32;;;;;;;4.82;3.08;;;15.00;99.90;;;;;;1037114;28;20025;-67
2022/09/21 01:47:07;;;;;;;3.50;2.80;;;15.00;99.90;;;;;;1036190;28;20699;-67
2022/09/21 01:47:42;;;;;;;5.97;3.72;;;15.00;99.90;;;;;;1039000;28;20693;-67
2022/09/21 01:48:14;;;;;;;4.18;3.00;;;15.00;99.90;;;;;;1038548;28;20699;-68
2022/09/21 01:48:49;;;;;;;4.65;3.65;;;15.00;99.90;;;;;;1037455;28;20664;-67
2022/09/21 01:49:26;;;;;;;5.30;3.33;;;15.00;99.90;;;;;;1034892;28;20124;-67
2022/09/21 01:49:59;;;;;;;6.75;3.92;;;15.00;99.90;;;;;;1037688;28;20392;-67
2022/09/21 01:50:49;;;;;;;4.55;3.60;;;15.00;99.90;;;;;;1037027;28;20017;-68
2022/09/21 01:51:24;;;;;;;4.93;3.47;;;15.00;99.90;;;;;;1034642;28;20034;-67
2022/09/21 01:52:00;;;;;;;3.78;2.83;;;15.00;99.90;;;;;;1038733;28;20030;-67
2022/09/21 01:52:41;;;;;;;7.53;3.90;;;15.00;99.90;;;;;;1035160;28;20018;-67
2022/09/21 01:53:36;;;;;;;4.13;3.45;;;15.00;99.90;;;;;;1036185;28;20329;-67
2022/09/21 01:54:27;;;;;;;4.15;3.15;;;15.00;99.90;;;;;;1038787;28;20017;-67
2022/09/21 01:55:03;;;;;;;5.75;3.53;;;15.00;99.90;;;;;;1038588;28;20018;-67
2022/09/21 01:55:42;;;;;;;3.90;3.30;;;15.00;99.90;;;;;;1038633;28;20022;-67
2022/09/21 01:56:26;;;;;;;6.15;3.53;;;15.00;99.90;;;;;;1035304;28;20013;-68
2022/09/21 01:57:15;;;;;;;5.47;3.72;;;15.00;99.90;;;;;;1035096;28;20018;-66
2022/09/21 01:58:13;;;;;;;5.13;3.38;;;15.00;99.90;;;;;;1031094;28;20037;-67
2022/09/21 01:59:04;;;;;;;4.50;3.55;;;15.00;99.90;;;;;;1030850;28;20072;-68
2022/09/21 01:59:46;;;;;;;4.40;3.70;;;15.00;99.90;;;;;;1031227;28;20037;-68
2022/09/21 02:00:16;;;;;;;6.32;3.97;;;15.00;99.90;;;;;;1037474;28;20100;-67
2022/09/21 02:00:51;;;;;;;4.77;2.97;;;15.00;99.90;;;;;;1038138;28;20029;-67
2022/09/21 02:01:26;;;;;;;4.82;3.10;;;14.90;99.90;;;;;;1030407;28;20026;-68
2022/09/21 02:02:01;;;;;;;4.97;3.75;;;14.90;99.90;;;;;;1037464;28;20021;-67
2022/09/21 02:02:47;;;;;;;3.95;3.33;;;14.90;99.90;;;;;;1038750;28;20104;-68
2022/09/21 02:03:28;;;;;;;3.10;2.80;;;14.90;99.90;;;;;;1039200;28;20088;-67
2022/09/21 02:04:07;;;;;;;4.55;3.28;;;14.90;99.90;;;;;;1038359;28;20477;-67
2022/09/21 02:04:38;;;;;;;4.68;3.42;;;14.90;99.90;;;;;;1038617;28;20021;-68
2022/09/21 02:05:10;;;;;;;4.22;3.25;;;14.90;99.90;;;;;;1038750;28;20045;-68
2022/09/21 02:05:41;;;;;;;3.92;3.17;;;14.90;99.90;;;;;;1038419;28;20551;-68
2022/09/21 02:06:13;;;;;;;3.58;3.10;;;14.90;99.90;;;;;;1038796;28;20476;-67
2022/09/21 02:06:46;;;;;;;4.63;2.90;;;14.90;99.90;;;;;;1038891;28;20017;-68
2022/09/21 02:07:17;;;;;;;5.20;3.60;;;14.90;99.90;;;;;;1039044;28;20068;-68
2022/09/21 02:07:51;;;;;;;4.35;3.42;;;14.80;99.90;;;;;;1034948;28;20426;-68
2022/09/21 02:08:25;;;;;;;4.55;3.42;;;14.90;99.90;;;;;;1036074;28;20018;-68
2022/09/21 02:08:57;;;;;;;4.03;3.58;;;14.90;99.90;;;;;;1037357;28;20029;-68
2022/09/21 02:09:27;;;;;;;3.40;3.03;;;14.90;99.90;;;;;;1035227;28;20101;-68
2022/09/21 02:10:00;;;;;;;3.90;2.93;;;14.90;99.90;;;;;;1034000;28;20542;-67
2022/09/21 02:10:38;;;;;;;5.93;3.78;;;14.90;99.90;;;;;;1035114;28;20018;-68
2022/09/21 02:11:11;;;;;;;4.13;3.58;;;14.80;99.90;;;;;;1035183;28;20021;-67
2022/09/21 02:11:43;;;;;;;4.60;3.15;;;14.80;99.90;;;;;;1035020;28;20128;-68
2022/09/21 02:12:14;;;;;;;6.63;3.30;;;14.80;99.90;;;;;;1035017;28;20407;-68
2022/09/21 02:12:45;;;;;;;3.87;3.17;;;14.80;99.90;;;;;;1035280;28;20412;-68
2022/09/21 02:13:19;;;;;;;4.55;3.28;;;14.80;99.90;;;;;;1033862;28;20713;-68
2022/09/21 02:13:52;;;;;;;2.92;2.63;;;14.80;99.90;;;;;;1034709;28;20081;-67
2022/09/21 02:14:24;;;;;;;3.63;2.75;;;14.80;99.90;;;;;;1034677;28;20006;-70
2022/09/21 02:14:55;;;;;;;4.22;3.00;;;14.80;99.90;;;;;;1035675;28;20034;-68
2022/09/21 02:15:37;;;;;;;3.30;2.90;;;14.80;99.90;;;;;;1039118;28;20029;-68
2022/09/21 02:16:09;;;;;;;3.25;2.70;;;14.80;99.90;;;;;;1038673;28;20025;-68
2022/09/21 02:16:55;;;;;;;3.78;3.08;;;14.80;99.90;;;;;;1037068;28;20009;-68
2022/09/21 02:17:45;;;;;;;4.55;2.92;;;14.80;99.90;;;;;;1037913;28;20036;-68
2022/09/21 02:18:39;;;;;;;5.32;3.55;;;14.80;99.90;;;;;;1024982;28;20864;-68
2022/09/21 02:19:15;;;;;;;4.07;2.88;;;14.80;99.90;;;;;;1032714;28;20022;-67
2022/09/21 02:20:16;;;;;;;4.50;3.33;;;14.80;99.90;;;;;;1034779;28;20014;-68
2022/09/21 02:20:55;;;;;;;4.60;3.33;;;14.80;99.90;;;;;;1030166;28;20025;-67
2022/09/21 02:21:52;;;;;;;4.50;3.40;;;14.70;99.90;;;;;;1030714;28;20019;-67
2022/09/21 02:22:53;;;;;;;4.25;3.15;;;14.70;99.90;;;;;;1032310;28;20653;-67
2022/09/21 02:23:38;;;;;;;5.03;3.40;;;14.70;99.90;;;;;;1039515;28;20063;-66
2022/09/21 02:24:43;;;;;;;3.35;3.05;;;14.70;99.90;;;;;;1038792;28;20720;-67
2022/09/21 02:25:39;;;;;;;5.43;3.40;;;14.70;99.90;;;;;;1030706;28;20022;-68
2022/09/21 02:26:23;;;;;;;5.25;3.20;;;14.70;99.90;;;;;;1023453;28;20039;-66
2022/09/21 02:27:03;;;;;;;3.35;2.70;;;14.70;99.90;;;;;;1034427;28;20037;-67
2022/09/21 02:27:55;;;;;;;3.63;3.00;;;14.70;99.90;;;;;;1035062;28;20492;-67
2022/09/21 02:28:42;;;;;;;5.97;3.28;;;14.70;99.90;;;;;;1038834;28;20083;-67
2022/09/21 02:29:19;;;;;;;5.03;3.20;;;14.70;99.90;;;;;;1038569;28;20014;-68
2022/09/21 02:30:05;;;;;;;3.67;2.97;;;14.70;99.90;;;;;;1038603;28;20025;-67
2022/09/21 02:30:37;;;;;;;3.95;3.00;;;14.70;99.90;;;;;;1030989;28;20767;-67
2022/09/21 02:31:32;;;;;;;3.83;2.70;;;14.70;99.90;;;;;;1034680;28;20033;-67
2022/09/21 02:32:11;;;;;;;3.47;2.50;;;14.70;99.90;;;;;;1038074;28;20027;-66
2022/09/21 02:32:50;;;;;;;5.32;2.75;;;14.80;99.90;;;;;;1038497;28;20029;-67
2022/09/21 02:33:33;;;;;;;3.88;3.13;;;14.70;99.90;;;;;;1039232;28;20025;-67
2022/09/21 02:34:19;;;;;;;4.43;3.05;;;14.80;99.90;;;;;;1038625;28;20014;-68
2022/09/21 02:34:59;;;;;;;4.40;3.17;;;14.80;99.90;;;;;;1034868;28;20018;-67
2022/09/21 02:35:56;;;;;;;3.05;2.33;;;14.80;99.90;;;;;;1038128;28;20021;-67
2022/09/21 02:36:37;;;;;;;4.72;3.40;;;14.80;99.90;;;;;;1039453;28;20585;-67
2022/09/21 02:37:21;;;;;;;5.50;3.38;;;14.70;99.90;;;;;;1037021;28;20494;-68
2022/09/21 02:38:05;;;;;;;4.72;2.78;;;14.70;99.90;;;;;;1034829;28;20101;-67
2022/09/21 02:38:35;;;;;;;3.85;2.40;;;14.70;99.90;;;;;;1039062;28;20832;-68
2022/09/21 02:39:17;;;;;;;3.57;3.17;;;14.70;99.90;;;;;;1034740;28;20117;-67
2022/09/21 02:40:15;;;;;;;5.28;3.22;;;14.70;99.90;;;;;;1034481;28;20060;-67
2022/09/21 02:41:07;;;;;;;3.20;2.90;;;14.70;99.90;;;;;;1030493;28;20077;-66
2022/09/21 02:42:04;;;;;;;3.65;2.58;;;14.70;99.90;;;;;;1032251;28;20041;-66
2022/09/21 02:42:39;;;;;;;3.22;2.83;;;14.70;99.90;;;;;;1029391;28;20560;-67
2022/09/21 02:43:26;;;;;;;3.65;2.58;;;14.60;99.90;;;;;;1035241;28;20023;-66
2022/09/21 02:44:09;;;;;;;2.90;2.60;;;14.60;99.90;;;;;;1034610;28;20025;-66
2022/09/21 02:44:51;;;;;;;3.70;2.53;;;14.60;99.90;;;;;;1034695;28;20762;-67
2022/09/21 02:45:25;;;;;;;2.97;2.28;;;14.60;99.90;;;;;;1034944;28;20030;-67
2022/09/21 02:46:03;;;;;;;3.92;2.67;;;14.60;99.90;;;;;;1034270;28;20524;-67
2022/09/21 02:46:37;;;;;;;3.45;2.42;;;14.60;99.90;;;;;;1030619;28;20029;-66
2022/09/21 02:47:51;;;;;;;4.47;3.03;;;14.60;99.90;;;;;;1034290;28;20510;-66
2022/09/21 02:48:47;;;;;;;4.50;3.15;;;14.60;99.90;;;;;;1042551;28;20027;-66
2022/09/21 02:49:30;;;;;;;3.38;2.75;;;14.60;99.90;;;;;;1028875;28;20020;-67
2022/09/21 02:50:06;;;;;;;4.28;3.15;;;14.60;99.90;;;;;;1035413;28;20548;-67
2022/09/21 02:50:44;;;;;;;4.85;3.05;;;14.60;99.90;;;;;;1040865;28;20021;-67
2022/09/21 02:51:28;;;;;;;3.48;2.70;;;14.50;99.90;;;;;;1042171;28;20575;-67
2022/09/21 02:52:04;;;;;;;3.03;2.50;;;14.50;99.90;;;;;;1042486;28;20065;-67
2022/09/21 02:52:37;;;;;;;2.75;2.47;;;14.50;99.90;;;;;;1039121;28;20037;-67
2022/09/21 02:53:10;;;;;;;4.60;2.28;;;14.50;99.90;;;;;;1038511;28;20037;-67
2022/09/21 02:53:42;;;;;;;3.50;2.85;;;14.50;99.90;;;;;;1038334;28;20029;-67
2022/09/21 02:54:19;;;;;;;4.03;2.80;;;14.50;99.90;;;;;;1037260;28;20028;-68
2022/09/21 02:54:52;;;;;;;2.97;2.28;;;14.50;99.90;;;;;;1038524;28;20534;-67
2022/09/21 02:55:24;;;;;;;5.53;2.72;;;14.50;99.90;;;;;;1038360;28;20010;-68
2022/09/21 02:55:58;;;;;;;2.90;2.20;;;14.50;99.90;;;;;;1038517;28;20032;-67
2022/09/21 02:56:30;;;;;;;3.63;2.60;;;14.50;99.90;;;;;;1038155;28;20026;-67
2022/09/21 02:57:02;;;;;;;5.47;2.75;;;14.50;99.90;;;;;;1038609;28;20515;-67
2022/09/21 02:57:34;;;;;;;2.88;2.20;;;14.50;99.90;;;;;;1037837;28;20119;-67
2022/09/21 02:58:08;;;;;;;4.45;2.45;;;14.50;99.90;;;;;;1038573;28;20018;-68
2022/09/21 02:58:46;;;;;;;3.20;2.58;;;14.50;99.90;;;;;;1038338;28;20036;-67
2022/09/21 02:59:17;;;;;;;3.72;2.38;;;14.50;99.90;;;;;;1038294;28;20813;-68
2022/09/21 02:59:49;;;;;;;2.27;1.97;;;14.50;99.90;;;;;;1035067;28;20794;-67
2022/09/21 03:00:20;;;;;;;4.20;2.85;;;14.50;99.90;;;;;;1034567;28;20018;-68
2022/09/21 03:00:50;;;;;;;3.23;2.63;;;14.50;99.90;;;;;;1037034;28;20061;-67
2022/09/21 03:01:23;;;;;;;3.43;2.30;;;14.50;99.90;;;;;;1035927;28;20029;-67
2022/09/21 03:01:57;;;;;;;2.72;2.30;;;14.50;99.90;;;;;;1034487;28;20029;-68
2022/09/21 03:02:42;;;;;;;3.92;2.30;;;14.50;99.90;;;;;;1036654;28;20041;-67
2022/09/21 03:03:16;;;;;;;3.25;2.50;;;14.50;99.90;;;;;;1038799;28;20524;-68
2022/09/21 03:03:47;;;;;;;3.83;2.20;;;14.50;99.90;;;;;;1038926;28;20040;-67
2022/09/21 03:04:18;;;;;;;5.45;2.88;;;14.50;99.90;;;;;;1038408;28;20036;-68
2022/09/21 03:04:48;;;;;;;3.93;2.50;;;14.50;99.90;;;;;;1038545;28;20028;-67
2022/09/21 03:05:19;;;;;;;2.77;2.20;;;14.40;99.90;;;;;;1038783;28;20029;-67
2022/09/21 03:05:52;;;;;;;4.47;2.30;;;14.50;99.90;;;;;;1038208;28;20018;-68
2022/09/21 03:06:23;;;;;;;3.20;2.17;;;14.40;99.90;;;;;;1038723;28;20137;-67
2022/09/21 03:06:53;;;;;;;2.67;2.13;;;14.50;99.90;;;;;;1038110;28;20052;-67
2022/09/21 03:07:24;;;;;;;2.63;2.00;;;14.50;99.90;;;;;;1038432;28;20017;-67
2022/09/21 03:07:54;;;;;;;3.53;2.33;;;14.50;99.90;;;;;;1037992;28;20021;-67
2022/09/21 03:08:25;;;;;;;2.67;1.90;;;14.50;99.90;;;;;;1042359;28;20095;-68
2022/09/21 03:08:56;;;;;;;5.40;2.67;;;14.50;99.90;;;;;;1034542;28;20104;-68
2022/09/21 03:09:28;;;;;;;2.60;2.20;;;14.50;99.90;;;;;;1041209;28;20074;-67
2022/09/21 03:09:58;;;;;;;3.60;2.33;;;14.50;99.90;;;;;;1038276;28;20019;-67
2022/09/21 03:10:29;;;;;;;3.80;2.43;;;14.50;99.90;;;;;;1038596;28;20018;-67
2022/09/21 03:10:59;;;;;;;2.97;2.27;;;14.50;99.90;;;;;;1037789;28;20037;-67
2022/09/21 03:11:30;;;;;;;3.90;2.30;;;14.50;99.90;;;;;;1034613;28;20046;-68
2022/09/21 03:12:01;;;;;;;5.20;2.47;;;14.50;99.90;;;;;;1030204;28;20434;-68
2022/09/21 03:12:31;;;;;;;2.47;2.28;;;14.50;99.90;;;;;;1031770;28;20037;-68
2022/09/21 03:13:02;;;;;;;2.33;2.10;;;14.50;99.90;;;;;;1031661;28;20060;-68